sensor_id;sensor_type;location;lat;lon;timestamp;P1;durP1;ratioP1;P2;durP2;ratioP2
4698;SDS011;33708;49.466;11.176;2023-07-30T00:01:11;5.80;;;2.20;;
4698;SDS011;33708;49.466;11.176;2023-07-30T00:03:37;5.83;;;2.17;;
4698;SDS011;33708;49.466;11.176;2023-07-30T00:06:02;5.70;;;2.10;;
4698;SDS011;33708;49.466;11.176;2023-07-30T00:08:28;5.00;;;2.40;;
4698;SDS011;33708;49.466;11.176;2023-07-30T00:10:56;3.80;;;2.00;;
4698;SDS011;33708;49.466;11.176;2023-07-30T00:13:22;7.10;;;2.20;;
4698;SDS011;33708;49.466;11.176;2023-07-30T00:15:48;6.57;;;2.30;;
4698;SDS011;33708;49.466;11.176;2023-07-30T00:18:14;5.20;;;1.93;;
4698;SDS011;33708;49.466;11.176;2023-07-30T00:20:40;7.33;;;2.50;;
4698;SDS011;33708;49.466;11.176;2023-07-30T00:23:06;7.07;;;2.43;;
4698;SDS011;33708;49.466;11.176;2023-07-30T00:25:31;3.53;;;2.47;;
4698;SDS011;33708;49.466;11.176;2023-07-30T00:27:57;5.83;;;2.40;;
4698;SDS011;33708;49.466;11.176;2023-07-30T00:30:23;6.10;;;2.57;;
4698;SDS011;33708;49.466;11.176;2023-07-30T00:32:48;5.70;;;2.30;;
4698;SDS011;33708;49.466;11.176;2023-07-30T00:35:14;3.60;;;2.00;;
4698;SDS011;33708;49.466;11.176;2023-07-30T00:37:40;6.80;;;2.43;;
4698;SDS011;33708;49.466;11.176;2023-07-30T00:40:06;5.80;;;2.40;;
4698;SDS011;33708;49.466;11.176;2023-07-30T00:42:32;4.90;;;1.97;;
4698;SDS011;33708;49.466;11.176;2023-07-30T00:44:57;5.60;;;2.20;;
4698;SDS011;33708;49.466;11.176;2023-07-30T00:47:23;9.83;;;2.20;;
4698;SDS011;33708;49.466;11.176;2023-07-30T00:49:49;3.40;;;2.30;;
4698;SDS011;33708;49.466;11.176;2023-07-30T00:52:15;4.00;;;2.17;;
4698;SDS011;33708;49.466;11.176;2023-07-30T00:54:42;4.33;;;2.33;;
4698;SDS011;33708;49.466;11.176;2023-07-30T00:57:07;5.80;;;2.13;;
4698;SDS011;33708;49.466;11.176;2023-07-30T00:59:41;5.30;;;2.07;;
4698;SDS011;33708;49.466;11.176;2023-07-30T01:02:06;5.50;;;2.07;;
4698;SDS011;33708;49.466;11.176;2023-07-30T01:04:41;5.90;;;2.33;;
4698;SDS011;33708;49.466;11.176;2023-07-30T01:07:12;4.30;;;2.03;;
4698;SDS011;33708;49.466;11.176;2023-07-30T01:09:38;4.43;;;2.40;;
4698;SDS011;33708;49.466;11.176;2023-07-30T01:12:04;5.23;;;2.37;;
4698;SDS011;33708;49.466;11.176;2023-07-30T01:14:30;5.87;;;1.83;;
4698;SDS011;33708;49.466;11.176;2023-07-30T01:16:57;6.10;;;2.90;;
4698;SDS011;33708;49.466;11.176;2023-07-30T01:19:22;5.20;;;2.13;;
4698;SDS011;33708;49.466;11.176;2023-07-30T01:21:48;6.13;;;2.50;;
4698;SDS011;33708;49.466;11.176;2023-07-30T01:24:14;4.03;;;1.77;;
4698;SDS011;33708;49.466;11.176;2023-07-30T01:29:10;3.47;;;2.50;;
4698;SDS011;33708;49.466;11.176;2023-07-30T01:31:47;3.33;;;2.30;;
4698;SDS011;33708;49.466;11.176;2023-07-30T01:34:20;4.10;;;2.60;;
4698;SDS011;33708;49.466;11.176;2023-07-30T01:36:46;10.73;;;3.07;;
4698;SDS011;33708;49.466;11.176;2023-07-30T01:39:13;5.00;;;2.17;;
4698;SDS011;33708;49.466;11.176;2023-07-30T01:41:40;8.17;;;2.73;;
4698;SDS011;33708;49.466;11.176;2023-07-30T01:44:06;3.97;;;2.50;;
4698;SDS011;33708;49.466;11.176;2023-07-30T01:46:31;5.43;;;2.47;;
4698;SDS011;33708;49.466;11.176;2023-07-30T01:48:57;6.03;;;2.80;;
4698;SDS011;33708;49.466;11.176;2023-07-30T01:51:22;11.27;;;3.70;;
4698;SDS011;33708;49.466;11.176;2023-07-30T01:53:48;4.53;;;2.60;;
4698;SDS011;33708;49.466;11.176;2023-07-30T01:56:14;5.10;;;2.40;;
4698;SDS011;33708;49.466;11.176;2023-07-30T01:58:39;5.90;;;2.47;;
4698;SDS011;33708;49.466;11.176;2023-07-30T02:01:05;8.80;;;3.07;;
4698;SDS011;33708;49.466;11.176;2023-07-30T02:03:30;4.53;;;2.57;;
4698;SDS011;33708;49.466;11.176;2023-07-30T02:05:56;4.90;;;2.80;;
4698;SDS011;33708;49.466;11.176;2023-07-30T02:08:21;7.00;;;3.00;;
4698;SDS011;33708;49.466;11.176;2023-07-30T02:10:59;3.00;;;2.27;;
4698;SDS011;33708;49.466;11.176;2023-07-30T02:13:25;4.60;;;2.50;;
4698;SDS011;33708;49.466;11.176;2023-07-30T02:15:51;7.03;;;2.93;;
4698;SDS011;33708;49.466;11.176;2023-07-30T02:18:17;4.33;;;2.90;;
4698;SDS011;33708;49.466;11.176;2023-07-30T02:20:42;5.00;;;3.50;;
4698;SDS011;33708;49.466;11.176;2023-07-30T02:23:08;4.47;;;2.80;;
4698;SDS011;33708;49.466;11.176;2023-07-30T02:25:34;5.63;;;3.40;;
4698;SDS011;33708;49.466;11.176;2023-07-30T02:28:00;10.20;;;3.53;;
4698;SDS011;33708;49.466;11.176;2023-07-30T02:30:26;8.73;;;4.20;;
4698;SDS011;33708;49.466;11.176;2023-07-30T02:32:52;4.90;;;3.40;;
4698;SDS011;33708;49.466;11.176;2023-07-30T02:35:19;11.27;;;3.67;;
4698;SDS011;33708;49.466;11.176;2023-07-30T02:37:44;6.47;;;3.67;;
4698;SDS011;33708;49.466;11.176;2023-07-30T02:40:10;4.87;;;3.70;;
4698;SDS011;33708;49.466;11.176;2023-07-30T02:42:36;11.30;;;3.60;;
4698;SDS011;33708;49.466;11.176;2023-07-30T02:45:02;8.53;;;4.20;;
4698;SDS011;33708;49.466;11.176;2023-07-30T02:47:28;5.60;;;3.50;;
4698;SDS011;33708;49.466;11.176;2023-07-30T02:49:53;6.90;;;3.43;;
4698;SDS011;33708;49.466;11.176;2023-07-30T02:52:19;8.10;;;3.83;;
4698;SDS011;33708;49.466;11.176;2023-07-30T02:54:45;7.40;;;4.20;;
4698;SDS011;33708;49.466;11.176;2023-07-30T02:57:10;5.00;;;3.43;;
4698;SDS011;33708;49.466;11.176;2023-07-30T02:59:37;6.67;;;3.57;;
4698;SDS011;33708;49.466;11.176;2023-07-30T03:02:03;7.53;;;3.60;;
4698;SDS011;33708;49.466;11.176;2023-07-30T03:04:32;4.90;;;3.33;;
4698;SDS011;33708;49.466;11.176;2023-07-30T03:06:58;6.93;;;4.30;;
4698;SDS011;33708;49.466;11.176;2023-07-30T03:09:24;5.00;;;3.10;;
4698;SDS011;33708;49.466;11.176;2023-07-30T03:11:50;5.33;;;3.80;;
4698;SDS011;33708;49.466;11.176;2023-07-30T03:14:15;6.03;;;4.03;;
4698;SDS011;33708;49.466;11.176;2023-07-30T03:16:45;9.20;;;3.43;;
4698;SDS011;33708;49.466;11.176;2023-07-30T03:19:13;6.07;;;3.57;;
4698;SDS011;33708;49.466;11.176;2023-07-30T03:21:39;7.93;;;4.17;;
4698;SDS011;33708;49.466;11.176;2023-07-30T03:24:05;5.47;;;3.70;;
4698;SDS011;33708;49.466;11.176;2023-07-30T03:26:31;9.63;;;4.03;;
4698;SDS011;33708;49.466;11.176;2023-07-30T03:28:56;5.23;;;3.60;;
4698;SDS011;33708;49.466;11.176;2023-07-30T03:31:22;6.73;;;3.63;;
4698;SDS011;33708;49.466;11.176;2023-07-30T03:33:48;6.63;;;3.67;;
4698;SDS011;33708;49.466;11.176;2023-07-30T03:36:14;5.50;;;3.00;;
4698;SDS011;33708;49.466;11.176;2023-07-30T03:38:40;6.63;;;3.43;;
4698;SDS011;33708;49.466;11.176;2023-07-30T03:41:06;5.50;;;4.10;;
4698;SDS011;33708;49.466;11.176;2023-07-30T03:43:32;10.40;;;4.20;;
4698;SDS011;33708;49.466;11.176;2023-07-30T03:45:58;8.10;;;4.27;;
4698;SDS011;33708;49.466;11.176;2023-07-30T03:48:24;7.50;;;3.90;;
4698;SDS011;33708;49.466;11.176;2023-07-30T03:50:49;6.13;;;4.10;;
4698;SDS011;33708;49.466;11.176;2023-07-30T03:53:15;10.47;;;4.03;;
4698;SDS011;33708;49.466;11.176;2023-07-30T03:55:41;9.80;;;4.67;;
4698;SDS011;33708;49.466;11.176;2023-07-30T03:58:06;7.03;;;3.97;;
4698;SDS011;33708;49.466;11.176;2023-07-30T04:00:32;7.50;;;4.20;;
4698;SDS011;33708;49.466;11.176;2023-07-30T04:02:58;6.13;;;4.13;;
4698;SDS011;33708;49.466;11.176;2023-07-30T04:05:23;5.77;;;3.83;;
4698;SDS011;33708;49.466;11.176;2023-07-30T04:07:49;7.83;;;4.30;;
4698;SDS011;33708;49.466;11.176;2023-07-30T04:10:15;8.30;;;3.97;;
4698;SDS011;33708;49.466;11.176;2023-07-30T04:12:40;5.07;;;3.80;;
4698;SDS011;33708;49.466;11.176;2023-07-30T04:15:06;6.37;;;3.80;;
4698;SDS011;33708;49.466;11.176;2023-07-30T04:17:32;13.73;;;4.60;;
4698;SDS011;33708;49.466;11.176;2023-07-30T04:20:00;7.37;;;3.83;;
4698;SDS011;33708;49.466;11.176;2023-07-30T04:22:25;6.80;;;4.20;;
4698;SDS011;33708;49.466;11.176;2023-07-30T04:24:51;5.97;;;3.63;;
4698;SDS011;33708;49.466;11.176;2023-07-30T04:27:16;6.80;;;3.83;;
4698;SDS011;33708;49.466;11.176;2023-07-30T04:29:42;6.90;;;4.07;;
4698;SDS011;33708;49.466;11.176;2023-07-30T04:32:08;5.90;;;3.67;;
4698;SDS011;33708;49.466;11.176;2023-07-30T04:34:33;5.97;;;3.53;;
4698;SDS011;33708;49.466;11.176;2023-07-30T04:36:59;10.80;;;4.10;;
4698;SDS011;33708;49.466;11.176;2023-07-30T04:39:24;4.20;;;3.20;;
4698;SDS011;33708;49.466;11.176;2023-07-30T04:41:50;6.10;;;3.50;;
4698;SDS011;33708;49.466;11.176;2023-07-30T04:44:15;6.10;;;3.97;;
4698;SDS011;33708;49.466;11.176;2023-07-30T04:46:41;10.13;;;3.47;;
4698;SDS011;33708;49.466;11.176;2023-07-30T04:49:06;5.60;;;3.00;;
4698;SDS011;33708;49.466;11.176;2023-07-30T04:51:32;13.50;;;3.53;;
4698;SDS011;33708;49.466;11.176;2023-07-30T04:53:57;5.13;;;2.87;;
4698;SDS011;33708;49.466;11.176;2023-07-30T04:56:23;5.50;;;3.30;;
4698;SDS011;33708;49.466;11.176;2023-07-30T04:58:51;5.47;;;3.37;;
4698;SDS011;33708;49.466;11.176;2023-07-30T05:01:17;5.43;;;3.60;;
4698;SDS011;33708;49.466;11.176;2023-07-30T05:03:42;7.60;;;3.23;;
4698;SDS011;33708;49.466;11.176;2023-07-30T05:06:08;4.40;;;3.30;;
4698;SDS011;33708;49.466;11.176;2023-07-30T05:08:33;7.57;;;3.67;;
4698;SDS011;33708;49.466;11.176;2023-07-30T05:10:59;5.70;;;3.13;;
4698;SDS011;33708;49.466;11.176;2023-07-30T05:13:24;3.83;;;2.93;;
4698;SDS011;33708;49.466;11.176;2023-07-30T05:15:50;4.30;;;3.13;;
4698;SDS011;33708;49.466;11.176;2023-07-30T05:18:16;6.37;;;3.60;;
4698;SDS011;33708;49.466;11.176;2023-07-30T05:20:41;5.53;;;3.27;;
4698;SDS011;33708;49.466;11.176;2023-07-30T05:23:07;7.33;;;3.83;;
4698;SDS011;33708;49.466;11.176;2023-07-30T05:25:32;5.03;;;3.17;;
4698;SDS011;33708;49.466;11.176;2023-07-30T05:27:58;6.63;;;3.63;;
4698;SDS011;33708;49.466;11.176;2023-07-30T05:30:23;4.40;;;3.10;;
4698;SDS011;33708;49.466;11.176;2023-07-30T05:32:49;7.43;;;3.83;;
4698;SDS011;33708;49.466;11.176;2023-07-30T05:35:14;5.53;;;3.73;;
4698;SDS011;33708;49.466;11.176;2023-07-30T05:37:40;5.10;;;2.90;;
4698;SDS011;33708;49.466;11.176;2023-07-30T05:40:06;7.83;;;4.00;;
4698;SDS011;33708;49.466;11.176;2023-07-30T05:42:32;5.43;;;3.53;;
4698;SDS011;33708;49.466;11.176;2023-07-30T05:44:57;6.50;;;4.10;;
4698;SDS011;33708;49.466;11.176;2023-07-30T05:47:23;6.50;;;3.93;;
4698;SDS011;33708;49.466;11.176;2023-07-30T05:49:48;6.97;;;3.87;;
4698;SDS011;33708;49.466;11.176;2023-07-30T05:52:14;5.70;;;3.37;;
4698;SDS011;33708;49.466;11.176;2023-07-30T05:54:40;8.77;;;3.80;;
4698;SDS011;33708;49.466;11.176;2023-07-30T05:57:05;4.83;;;3.13;;
4698;SDS011;33708;49.466;11.176;2023-07-30T05:59:31;12.73;;;3.83;;
4698;SDS011;33708;49.466;11.176;2023-07-30T06:01:56;6.90;;;4.00;;
4698;SDS011;33708;49.466;11.176;2023-07-30T06:04:26;5.10;;;3.73;;
4698;SDS011;33708;49.466;11.176;2023-07-30T06:06:51;3.93;;;3.27;;
4698;SDS011;33708;49.466;11.176;2023-07-30T06:09:17;6.50;;;4.10;;
4698;SDS011;33708;49.466;11.176;2023-07-30T06:11:43;8.63;;;3.90;;
4698;SDS011;33708;49.466;11.176;2023-07-30T06:14:08;4.67;;;3.20;;
4698;SDS011;33708;49.466;11.176;2023-07-30T06:16:34;10.00;;;3.50;;
4698;SDS011;33708;49.466;11.176;2023-07-30T06:19:00;4.97;;;3.50;;
4698;SDS011;33708;49.466;11.176;2023-07-30T06:21:25;5.50;;;3.13;;
4698;SDS011;33708;49.466;11.176;2023-07-30T06:23:51;13.13;;;3.37;;
4698;SDS011;33708;49.466;11.176;2023-07-30T06:26:16;4.80;;;3.67;;
4698;SDS011;33708;49.466;11.176;2023-07-30T06:28:42;3.73;;;3.00;;
4698;SDS011;33708;49.466;11.176;2023-07-30T06:31:07;4.07;;;2.97;;
4698;SDS011;33708;49.466;11.176;2023-07-30T06:33:33;5.03;;;2.90;;
4698;SDS011;33708;49.466;11.176;2023-07-30T06:35:59;4.17;;;3.00;;
4698;SDS011;33708;49.466;11.176;2023-07-30T06:38:24;4.47;;;3.10;;
4698;SDS011;33708;49.466;11.176;2023-07-30T06:40:50;5.20;;;2.90;;
4698;SDS011;33708;49.466;11.176;2023-07-30T06:43:15;5.87;;;3.20;;
4698;SDS011;33708;49.466;11.176;2023-07-30T06:45:41;4.97;;;2.63;;
4698;SDS011;33708;49.466;11.176;2023-07-30T06:48:07;6.07;;;2.67;;
4698;SDS011;33708;49.466;11.176;2023-07-30T06:50:32;4.77;;;3.00;;
4698;SDS011;33708;49.466;11.176;2023-07-30T06:52:58;7.33;;;2.90;;
4698;SDS011;33708;49.466;11.176;2023-07-30T06:55:23;4.43;;;2.43;;
4698;SDS011;33708;49.466;11.176;2023-07-30T06:57:49;5.60;;;2.57;;
4698;SDS011;33708;49.466;11.176;2023-07-30T07:00:15;6.07;;;2.30;;
4698;SDS011;33708;49.466;11.176;2023-07-30T07:02:47;3.97;;;2.27;;
4698;SDS011;33708;49.466;11.176;2023-07-30T07:05:13;4.47;;;2.30;;
4698;SDS011;33708;49.466;11.176;2023-07-30T07:07:40;3.30;;;2.20;;
4698;SDS011;33708;49.466;11.176;2023-07-30T07:10:05;4.13;;;2.73;;
4698;SDS011;33708;49.466;11.176;2023-07-30T07:12:31;6.13;;;2.30;;
4698;SDS011;33708;49.466;11.176;2023-07-30T07:14:57;4.53;;;2.13;;
4698;SDS011;33708;49.466;11.176;2023-07-30T07:17:23;3.40;;;2.30;;
4698;SDS011;33708;49.466;11.176;2023-07-30T07:19:49;3.30;;;2.40;;
4698;SDS011;33708;49.466;11.176;2023-07-30T07:22:15;5.47;;;2.13;;
4698;SDS011;33708;49.466;11.176;2023-07-30T07:24:42;3.90;;;2.30;;
4698;SDS011;33708;49.466;11.176;2023-07-30T07:27:09;4.10;;;2.13;;
4698;SDS011;33708;49.466;11.176;2023-07-30T07:29:34;4.63;;;1.90;;
4698;SDS011;33708;49.466;11.176;2023-07-30T07:32:00;3.43;;;2.30;;
4698;SDS011;33708;49.466;11.176;2023-07-30T07:34:26;3.23;;;1.77;;
4698;SDS011;33708;49.466;11.176;2023-07-30T07:36:51;6.30;;;2.23;;
4698;SDS011;33708;49.466;11.176;2023-07-30T07:39:17;3.77;;;1.80;;
4698;SDS011;33708;49.466;11.176;2023-07-30T07:41:43;3.13;;;1.80;;
4698;SDS011;33708;49.466;11.176;2023-07-30T07:44:08;3.90;;;2.07;;
4698;SDS011;33708;49.466;11.176;2023-07-30T07:46:34;4.13;;;1.90;;
4698;SDS011;33708;49.466;11.176;2023-07-30T07:49:00;4.90;;;2.00;;
4698;SDS011;33708;49.466;11.176;2023-07-30T07:51:25;3.63;;;1.83;;
4698;SDS011;33708;49.466;11.176;2023-07-30T07:53:51;3.67;;;1.60;;
4698;SDS011;33708;49.466;11.176;2023-07-30T07:56:17;3.47;;;1.97;;
4698;SDS011;33708;49.466;11.176;2023-07-30T07:58:43;4.37;;;2.10;;
4698;SDS011;33708;49.466;11.176;2023-07-30T08:01:08;4.83;;;2.00;;
4698;SDS011;33708;49.466;11.176;2023-07-30T08:03:34;4.10;;;1.97;;
4698;SDS011;33708;49.466;11.176;2023-07-30T08:06:00;4.63;;;2.10;;
4698;SDS011;33708;49.466;11.176;2023-07-30T08:08:26;5.20;;;1.83;;
4698;SDS011;33708;49.466;11.176;2023-07-30T08:10:51;8.60;;;1.90;;
4698;SDS011;33708;49.466;11.176;2023-07-30T08:13:17;3.47;;;2.13;;
4698;SDS011;33708;49.466;11.176;2023-07-30T08:15:43;5.27;;;2.10;;
4698;SDS011;33708;49.466;11.176;2023-07-30T08:18:09;3.70;;;2.20;;
4698;SDS011;33708;49.466;11.176;2023-07-30T08:20:35;9.93;;;2.30;;
4698;SDS011;33708;49.466;11.176;2023-07-30T08:23:01;3.03;;;2.10;;
4698;SDS011;33708;49.466;11.176;2023-07-30T08:25:26;5.73;;;2.23;;
4698;SDS011;33708;49.466;11.176;2023-07-30T08:27:52;4.23;;;1.97;;
4698;SDS011;33708;49.466;11.176;2023-07-30T08:30:17;3.43;;;2.00;;
4698;SDS011;33708;49.466;11.176;2023-07-30T08:32:43;5.10;;;2.27;;
4698;SDS011;33708;49.466;11.176;2023-07-30T08:35:09;3.47;;;2.20;;
4698;SDS011;33708;49.466;11.176;2023-07-30T08:37:35;4.77;;;2.30;;
4698;SDS011;33708;49.466;11.176;2023-07-30T08:40:01;3.10;;;2.07;;
4698;SDS011;33708;49.466;11.176;2023-07-30T08:42:27;6.67;;;2.10;;
4698;SDS011;33708;49.466;11.176;2023-07-30T08:44:53;4.27;;;1.60;;
4698;SDS011;33708;49.466;11.176;2023-07-30T08:47:19;8.10;;;1.80;;
4698;SDS011;33708;49.466;11.176;2023-07-30T08:49:45;4.90;;;2.10;;
4698;SDS011;33708;49.466;11.176;2023-07-30T08:52:10;3.00;;;1.57;;
4698;SDS011;33708;49.466;11.176;2023-07-30T08:54:37;3.07;;;2.13;;
4698;SDS011;33708;49.466;11.176;2023-07-30T08:57:03;4.57;;;1.67;;
4698;SDS011;33708;49.466;11.176;2023-07-30T08:59:35;3.20;;;2.00;;
4698;SDS011;33708;49.466;11.176;2023-07-30T09:02:05;4.83;;;2.23;;
4698;SDS011;33708;49.466;11.176;2023-07-30T09:04:37;6.90;;;1.83;;
4698;SDS011;33708;49.466;11.176;2023-07-30T09:07:03;3.33;;;1.70;;
4698;SDS011;33708;49.466;11.176;2023-07-30T09:09:33;8.20;;;1.77;;
4698;SDS011;33708;49.466;11.176;2023-07-30T09:11:58;6.57;;;2.20;;
4698;SDS011;33708;49.466;11.176;2023-07-30T09:14:25;3.63;;;1.80;;
4698;SDS011;33708;49.466;11.176;2023-07-30T09:16:57;5.37;;;1.90;;
4698;SDS011;33708;49.466;11.176;2023-07-30T09:19:23;4.53;;;2.50;;
4698;SDS011;33708;49.466;11.176;2023-07-30T09:21:49;2.93;;;1.90;;
4698;SDS011;33708;49.466;11.176;2023-07-30T09:24:19;2.70;;;1.70;;
4698;SDS011;33708;49.466;11.176;2023-07-30T09:26:46;3.87;;;2.20;;
4698;SDS011;33708;49.466;11.176;2023-07-30T09:29:12;3.40;;;1.90;;
4698;SDS011;33708;49.466;11.176;2023-07-30T09:31:48;4.40;;;2.10;;
4698;SDS011;33708;49.466;11.176;2023-07-30T09:34:17;3.60;;;2.00;;
4698;SDS011;33708;49.466;11.176;2023-07-30T09:36:47;3.27;;;1.90;;
4698;SDS011;33708;49.466;11.176;2023-07-30T09:39:24;2.50;;;1.67;;
4698;SDS011;33708;49.466;11.176;2023-07-30T09:41:52;7.30;;;1.90;;
4698;SDS011;33708;49.466;11.176;2023-07-30T09:44:23;2.30;;;1.50;;
4698;SDS011;33708;49.466;11.176;2023-07-30T09:46:49;4.43;;;2.13;;
4698;SDS011;33708;49.466;11.176;2023-07-30T09:49:16;4.60;;;1.90;;
4698;SDS011;33708;49.466;11.176;2023-07-30T09:51:42;3.17;;;1.67;;
4698;SDS011;33708;49.466;11.176;2023-07-30T09:54:09;2.93;;;1.60;;
4698;SDS011;33708;49.466;11.176;2023-07-30T09:56:37;4.97;;;1.73;;
4698;SDS011;33708;49.466;11.176;2023-07-30T09:59:04;2.20;;;1.40;;
4698;SDS011;33708;49.466;11.176;2023-07-30T10:01:30;2.20;;;1.27;;
4698;SDS011;33708;49.466;11.176;2023-07-30T10:03:56;2.97;;;1.43;;
4698;SDS011;33708;49.466;11.176;2023-07-30T10:06:27;2.03;;;1.17;;
4698;SDS011;33708;49.466;11.176;2023-07-30T10:08:56;2.10;;;1.03;;
4698;SDS011;33708;49.466;11.176;2023-07-30T10:11:24;2.77;;;1.60;;
4698;SDS011;33708;49.466;11.176;2023-07-30T10:13:52;3.17;;;1.40;;
4698;SDS011;33708;49.466;11.176;2023-07-30T10:16:19;2.70;;;1.47;;
4698;SDS011;33708;49.466;11.176;2023-07-30T10:18:58;3.83;;;1.10;;
4698;SDS011;33708;49.466;11.176;2023-07-30T10:21:25;3.40;;;1.80;;
4698;SDS011;33708;49.466;11.176;2023-07-30T10:24:02;2.90;;;1.60;;
4698;SDS011;33708;49.466;11.176;2023-07-30T10:26:29;3.77;;;1.70;;
4698;SDS011;33708;49.466;11.176;2023-07-30T10:29:13;4.43;;;1.30;;
4698;SDS011;33708;49.466;11.176;2023-07-30T10:31:42;2.40;;;1.60;;
4698;SDS011;33708;49.466;11.176;2023-07-30T10:34:12;2.43;;;1.50;;
4698;SDS011;33708;49.466;11.176;2023-07-30T10:36:42;2.80;;;1.60;;
4698;SDS011;33708;49.466;11.176;2023-07-30T10:41:45;6.10;;;1.90;;
4698;SDS011;33708;49.466;11.176;2023-07-30T10:44:21;4.40;;;1.80;;
4698;SDS011;33708;49.466;11.176;2023-07-30T10:46:49;3.50;;;1.40;;
4698;SDS011;33708;49.466;11.176;2023-07-30T10:49:15;3.27;;;1.70;;
4698;SDS011;33708;49.466;11.176;2023-07-30T10:51:41;3.57;;;1.70;;
4698;SDS011;33708;49.466;11.176;2023-07-30T10:54:06;3.50;;;1.77;;
4698;SDS011;33708;49.466;11.176;2023-07-30T10:56:34;3.43;;;1.77;;
4698;SDS011;33708;49.466;11.176;2023-07-30T10:59:02;2.97;;;1.40;;
4698;SDS011;33708;49.466;11.176;2023-07-30T11:01:30;3.63;;;1.83;;
4698;SDS011;33708;49.466;11.176;2023-07-30T11:03:56;3.53;;;1.60;;
4698;SDS011;33708;49.466;11.176;2023-07-30T11:06:25;4.93;;;1.40;;
4698;SDS011;33708;49.466;11.176;2023-07-30T11:08:52;3.20;;;1.63;;
4698;SDS011;33708;49.466;11.176;2023-07-30T11:11:17;2.80;;;1.60;;
4698;SDS011;33708;49.466;11.176;2023-07-30T11:13:44;2.93;;;1.40;;
4698;SDS011;33708;49.466;11.176;2023-07-30T11:16:11;3.73;;;1.60;;
4698;SDS011;33708;49.466;11.176;2023-07-30T11:18:38;2.63;;;1.20;;
4698;SDS011;33708;49.466;11.176;2023-07-30T11:21:05;3.80;;;1.90;;
4698;SDS011;33708;49.466;11.176;2023-07-30T11:23:35;4.30;;;1.67;;
4698;SDS011;33708;49.466;11.176;2023-07-30T11:26:17;2.15;;;1.17;;
4698;SDS011;33708;49.466;11.176;2023-07-30T11:28:44;2.87;;;1.70;;
4698;SDS011;33708;49.466;11.176;2023-07-30T11:31:17;5.50;;;1.75;;
4698;SDS011;33708;49.466;11.176;2023-07-30T11:33:45;3.80;;;1.63;;
4698;SDS011;33708;49.466;11.176;2023-07-30T11:36:14;4.27;;;1.50;;
4698;SDS011;33708;49.466;11.176;2023-07-30T11:38:41;2.87;;;1.43;;
4698;SDS011;33708;49.466;11.176;2023-07-30T11:41:07;2.83;;;1.67;;
4698;SDS011;33708;49.466;11.176;2023-07-30T11:43:38;2.83;;;1.43;;
4698;SDS011;33708;49.466;11.176;2023-07-30T11:46:11;3.33;;;1.60;;
4698;SDS011;33708;49.466;11.176;2023-07-30T11:48:39;3.03;;;1.70;;
4698;SDS011;33708;49.466;11.176;2023-07-30T11:51:06;2.47;;;1.43;;
4698;SDS011;33708;49.466;11.176;2023-07-30T11:53:47;3.10;;;1.50;;
4698;SDS011;33708;49.466;11.176;2023-07-30T11:56:25;2.80;;;1.80;;
4698;SDS011;33708;49.466;11.176;2023-07-30T11:58:55;5.07;;;2.10;;
4698;SDS011;33708;49.466;11.176;2023-07-30T12:01:26;3.03;;;1.90;;
4698;SDS011;33708;49.466;11.176;2023-07-30T12:03:58;3.73;;;1.40;;
4698;SDS011;33708;49.466;11.176;2023-07-30T12:06:37;3.67;;;2.07;;
4698;SDS011;33708;49.466;11.176;2023-07-30T12:11:55;2.17;;;1.20;;
4698;SDS011;33708;49.466;11.176;2023-07-30T12:14:22;7.07;;;1.97;;
4698;SDS011;33708;49.466;11.176;2023-07-30T12:16:57;6.47;;;1.50;;
4698;SDS011;33708;49.466;11.176;2023-07-30T12:19:23;4.37;;;2.00;;
4698;SDS011;33708;49.466;11.176;2023-07-30T12:21:49;2.90;;;1.97;;
4698;SDS011;33708;49.466;11.176;2023-07-30T12:24:15;4.27;;;1.90;;
4698;SDS011;33708;49.466;11.176;2023-07-30T12:26:40;3.20;;;1.93;;
4698;SDS011;33708;49.466;11.176;2023-07-30T12:29:06;2.97;;;1.63;;
4698;SDS011;33708;49.466;11.176;2023-07-30T12:31:32;3.63;;;1.90;;
4698;SDS011;33708;49.466;11.176;2023-07-30T12:33:57;3.40;;;1.93;;
4698;SDS011;33708;49.466;11.176;2023-07-30T12:36:23;3.10;;;1.63;;
4698;SDS011;33708;49.466;11.176;2023-07-30T12:38:48;4.40;;;2.17;;
4698;SDS011;33708;49.466;11.176;2023-07-30T12:41:14;2.57;;;1.63;;
4698;SDS011;33708;49.466;11.176;2023-07-30T12:43:40;3.80;;;2.10;;
4698;SDS011;33708;49.466;11.176;2023-07-30T12:46:05;4.53;;;1.83;;
4698;SDS011;33708;49.466;11.176;2023-07-30T12:48:31;5.23;;;1.80;;
4698;SDS011;33708;49.466;11.176;2023-07-30T12:50:57;3.10;;;1.67;;
4698;SDS011;33708;49.466;11.176;2023-07-30T12:53:22;3.00;;;1.73;;
4698;SDS011;33708;49.466;11.176;2023-07-30T12:55:48;3.20;;;2.13;;
4698;SDS011;33708;49.466;11.176;2023-07-30T12:58:13;2.80;;;2.00;;
4698;SDS011;33708;49.466;11.176;2023-07-30T13:00:39;3.10;;;1.90;;
4698;SDS011;33708;49.466;11.176;2023-07-30T13:03:05;5.30;;;2.30;;
4698;SDS011;33708;49.466;11.176;2023-07-30T13:05:31;5.07;;;2.00;;
4698;SDS011;33708;49.466;11.176;2023-07-30T13:07:56;3.67;;;2.17;;
4698;SDS011;33708;49.466;11.176;2023-07-30T13:10:22;6.93;;;2.13;;
4698;SDS011;33708;49.466;11.176;2023-07-30T13:12:47;4.30;;;2.30;;
4698;SDS011;33708;49.466;11.176;2023-07-30T13:15:13;3.40;;;2.30;;
4698;SDS011;33708;49.466;11.176;2023-07-30T13:17:39;4.40;;;2.30;;
4698;SDS011;33708;49.466;11.176;2023-07-30T13:20:05;4.40;;;2.30;;
4698;SDS011;33708;49.466;11.176;2023-07-30T13:22:31;3.60;;;1.90;;
4698;SDS011;33708;49.466;11.176;2023-07-30T13:24:57;3.20;;;2.00;;
4698;SDS011;33708;49.466;11.176;2023-07-30T13:27:22;3.40;;;2.03;;
4698;SDS011;33708;49.466;11.176;2023-07-30T13:29:48;5.27;;;2.47;;
4698;SDS011;33708;49.466;11.176;2023-07-30T13:32:14;5.50;;;2.40;;
4698;SDS011;33708;49.466;11.176;2023-07-30T13:34:40;5.10;;;2.13;;
4698;SDS011;33708;49.466;11.176;2023-07-30T13:37:06;3.43;;;1.80;;
4698;SDS011;33708;49.466;11.176;2023-07-30T13:39:31;3.40;;;2.20;;
4698;SDS011;33708;49.466;11.176;2023-07-30T13:41:57;2.83;;;1.83;;
4698;SDS011;33708;49.466;11.176;2023-07-30T13:44:22;5.10;;;2.03;;
4698;SDS011;33708;49.466;11.176;2023-07-30T13:46:48;4.53;;;1.87;;
4698;SDS011;33708;49.466;11.176;2023-07-30T13:49:14;3.30;;;2.10;;
4698;SDS011;33708;49.466;11.176;2023-07-30T13:51:39;5.57;;;2.30;;
4698;SDS011;33708;49.466;11.176;2023-07-30T13:54:05;4.23;;;1.83;;
4698;SDS011;33708;49.466;11.176;2023-07-30T13:56:32;4.70;;;1.93;;
4698;SDS011;33708;49.466;11.176;2023-07-30T13:58:58;6.20;;;1.90;;
4698;SDS011;33708;49.466;11.176;2023-07-30T14:01:24;3.00;;;1.87;;
4698;SDS011;33708;49.466;11.176;2023-07-30T14:03:50;4.07;;;1.67;;
4698;SDS011;33708;49.466;11.176;2023-07-30T14:06:16;4.87;;;2.00;;
4698;SDS011;33708;49.466;11.176;2023-07-30T14:08:42;3.47;;;1.80;;
4698;SDS011;33708;49.466;11.176;2023-07-30T14:11:07;3.80;;;1.70;;
4698;SDS011;33708;49.466;11.176;2023-07-30T14:13:33;4.60;;;2.00;;
4698;SDS011;33708;49.466;11.176;2023-07-30T14:15:58;4.03;;;1.87;;
4698;SDS011;33708;49.466;11.176;2023-07-30T14:18:24;7.77;;;2.20;;
4698;SDS011;33708;49.466;11.176;2023-07-30T14:20:50;5.23;;;1.97;;
4698;SDS011;33708;49.466;11.176;2023-07-30T14:23:16;4.40;;;2.20;;
4698;SDS011;33708;49.466;11.176;2023-07-30T14:25:41;4.70;;;2.40;;
4698;SDS011;33708;49.466;11.176;2023-07-30T14:28:07;11.27;;;1.97;;
4698;SDS011;33708;49.466;11.176;2023-07-30T14:30:33;6.43;;;1.80;;
4698;SDS011;33708;49.466;11.176;2023-07-30T14:33:00;3.67;;;1.40;;
4698;SDS011;33708;49.466;11.176;2023-07-30T14:35:27;3.53;;;1.90;;
4698;SDS011;33708;49.466;11.176;2023-07-30T14:37:53;4.47;;;1.70;;
4698;SDS011;33708;49.466;11.176;2023-07-30T14:40:19;5.83;;;1.57;;
4698;SDS011;33708;49.466;11.176;2023-07-30T14:42:45;2.90;;;1.53;;
4698;SDS011;33708;49.466;11.176;2023-07-30T14:45:11;4.53;;;1.43;;
4698;SDS011;33708;49.466;11.176;2023-07-30T14:47:36;4.57;;;2.17;;
4698;SDS011;33708;49.466;11.176;2023-07-30T14:50:04;3.10;;;1.40;;
4698;SDS011;33708;49.466;11.176;2023-07-30T14:52:31;6.00;;;1.63;;